createdAt,value
2017-12-12T00:01:52.260Z,5.20
2017-12-12T00:04:20.267Z,4.80
2017-12-12T00:06:47.137Z,4.70
2017-12-12T00:09:13.264Z,4.70
2017-12-12T00:11:39.696Z,4.60
2017-12-12T00:14:06.203Z,4.50
2017-12-12T00:16:32.603Z,4.60
2017-12-12T00:18:59.891Z,4.40
2017-12-12T00:21:26.950Z,4.30
2017-12-12T00:23:53.300Z,4.30
2017-12-12T00:26:19.619Z,4.30
2017-12-12T00:28:45.942Z,4.00
2017-12-12T00:31:12.295Z,4.00
2017-12-12T00:33:38.600Z,3.70
2017-12-12T00:36:04.929Z,3.50
2017-12-12T00:38:31.377Z,3.30
2017-12-12T00:40:58.472Z,3.10
2017-12-12T00:43:24.804Z,3.10
2017-12-12T00:45:51.089Z,2.90
2017-12-12T00:48:18.263Z,2.90
2017-12-12T00:50:44.580Z,2.90
2017-12-12T00:53:10.901Z,2.90
2017-12-12T00:55:38.077Z,2.90
2017-12-12T00:58:05.022Z,2.90
2017-12-12T01:00:31.168Z,2.90
2017-12-12T01:02:57.265Z,3.00
2017-12-12T01:05:23.376Z,3.00
2017-12-12T01:07:50.308Z,2.80
2017-12-12T01:10:16.399Z,2.70
2017-12-12T01:12:42.493Z,2.60
2017-12-12T01:15:08.659Z,2.60
2017-12-12T01:17:34.792Z,2.60
2017-12-12T01:20:01.837Z,2.70
2017-12-12T01:22:27.940Z,2.60
2017-12-12T01:24:54.063Z,2.60
2017-12-12T01:27:20.446Z,2.60
2017-12-12T01:29:46.752Z,2.60
2017-12-12T01:32:13.094Z,2.50
2017-12-12T01:34:39.731Z,2.30
2017-12-12T01:37:06.981Z,2.50
2017-12-12T01:39:33.822Z,2.50
2017-12-12T01:42:00.074Z,2.50
2017-12-12T01:44:26.950Z,2.50
2017-12-12T01:46:53.103Z,2.50
2017-12-12T01:49:19.975Z,2.40
2017-12-12T01:51:46.224Z,2.40
2017-12-12T01:54:12.336Z,2.50
2017-12-12T01:56:38.484Z,2.50
2017-12-12T01:59:05.342Z,2.50
2017-12-12T02:01:31.521Z,2.50
2017-12-12T02:03:57.678Z,2.30
2017-12-12T02:06:23.793Z,2.50
2017-12-12T02:08:50.393Z,2.50
2017-12-12T02:11:16.734Z,2.60
2017-12-12T02:13:43.063Z,2.50
2017-12-12T02:16:10.194Z,2.60
2017-12-12T02:18:36.635Z,2.60
2017-12-12T02:21:03.049Z,2.50
2017-12-12T02:23:30.124Z,2.60
2017-12-12T02:25:56.447Z,2.50
2017-12-12T02:28:22.910Z,2.50
2017-12-12T02:30:49.279Z,2.50
2017-12-12T02:33:15.655Z,2.60
2017-12-12T02:35:42.002Z,2.40
2017-12-12T02:38:08.408Z,2.50
2017-12-12T02:40:34.763Z,2.30
2017-12-12T02:43:01.098Z,2.30
2017-12-12T02:45:28.185Z,2.30
2017-12-12T02:47:54.568Z,2.30
2017-12-12T02:50:25.145Z,2.30
2017-12-12T02:52:51.984Z,2.50
2017-12-12T02:55:18.872Z,2.50
2017-12-12T02:57:46.080Z,2.50
2017-12-12T03:00:12.494Z,2.50
2017-12-12T03:02:38.692Z,2.50
2017-12-12T03:05:04.804Z,2.40
2017-12-12T03:07:30.922Z,2.40
2017-12-12T03:09:57.136Z,2.30
2017-12-12T03:12:23.262Z,2.30
2017-12-12T03:14:49.369Z,2.30
2017-12-12T03:17:16.129Z,2.40
2017-12-12T03:19:42.242Z,2.50
2017-12-12T03:22:09.259Z,2.50
2017-12-12T03:24:35.368Z,2.50
2017-12-12T03:27:01.453Z,2.50
2017-12-12T03:29:27.613Z,2.60
2017-12-12T03:31:53.776Z,2.50
2017-12-12T03:34:19.950Z,2.60
2017-12-12T03:36:46.049Z,2.60
2017-12-12T03:39:12.894Z,2.60
2017-12-12T03:41:39.002Z,2.60
2017-12-12T03:44:05.096Z,2.50
2017-12-12T03:46:31.952Z,2.60
2017-12-12T03:48:58.804Z,2.50
2017-12-12T03:51:24.908Z,2.50
2017-12-12T03:53:51.137Z,2.60
2017-12-12T03:56:17.307Z,2.60
2017-12-12T03:58:43.688Z,2.50
2017-12-12T04:01:09.805Z,2.40
2017-12-12T04:03:36.096Z,2.40
2017-12-12T04:06:03.311Z,2.40
2017-12-12T04:08:29.600Z,2.50
2017-12-12T04:10:55.912Z,2.50
2017-12-12T04:13:23.111Z,2.50
2017-12-12T04:15:50.117Z,2.30
2017-12-12T04:18:16.212Z,2.30
2017-12-12T04:20:42.308Z,2.40
2017-12-12T04:23:08.416Z,2.40
2017-12-12T04:25:34.572Z,2.50
2017-12-12T04:28:00.722Z,2.60
2017-12-12T04:30:27.043Z,2.60
2017-12-12T04:32:53.461Z,2.60
2017-12-12T04:35:20.340Z,2.60
2017-12-12T04:37:46.452Z,2.60
2017-12-12T04:40:14.910Z,2.50
2017-12-12T04:42:41.046Z,2.50
2017-12-12T04:45:07.317Z,2.50
2017-12-12T04:47:35.756Z,2.50
2017-12-12T04:50:01.963Z,2.50
2017-12-12T04:52:28.127Z,2.60
2017-12-12T04:54:54.336Z,2.60
2017-12-12T04:57:20.544Z,2.60
2017-12-12T04:59:46.812Z,2.60
2017-12-12T05:02:12.996Z,2.60
2017-12-12T05:04:39.125Z,2.50
2017-12-12T05:07:05.964Z,2.60
2017-12-12T05:09:32.060Z,2.60
2017-12-12T05:11:58.200Z,2.70
2017-12-12T05:14:26.257Z,2.70
2017-12-12T05:16:52.363Z,2.70
2017-12-12T05:19:18.504Z,2.60
2017-12-12T05:21:44.856Z,2.60
2017-12-12T05:24:11.152Z,2.60
2017-12-12T05:26:37.508Z,2.60
2017-12-12T05:29:03.804Z,2.60
2017-12-12T05:31:30.112Z,2.70
2017-12-12T05:33:56.475Z,2.70
2017-12-12T05:36:22.766Z,2.60
2017-12-12T05:38:49.808Z,2.70
2017-12-12T05:41:16.116Z,2.70
2017-12-12T05:43:42.507Z,2.70
2017-12-12T05:46:09.580Z,2.70
2017-12-12T05:48:35.912Z,2.70
2017-12-12T05:51:02.237Z,2.80
2017-12-12T05:53:28.545Z,2.90
2017-12-12T05:55:54.880Z,2.90
2017-12-12T05:58:21.236Z,2.90
2017-12-12T06:00:47.543Z,2.80
2017-12-12T06:03:14.602Z,2.80
2017-12-12T06:05:41.661Z,2.80
2017-12-12T06:08:07.988Z,2.80
2017-12-12T06:10:34.353Z,2.80
2017-12-12T06:13:01.454Z,2.90
2017-12-12T06:15:27.780Z,2.90
2017-12-12T06:17:54.261Z,2.80
2017-12-12T06:20:20.653Z,2.90
2017-12-12T06:22:46.977Z,2.80
2017-12-12T06:25:13.310Z,2.90
2017-12-12T06:27:39.661Z,2.80
2017-12-12T06:30:06.052Z,2.80
2017-12-12T06:32:32.376Z,2.80
2017-12-12T06:34:58.689Z,2.80
2017-12-12T06:37:25.041Z,2.80
2017-12-12T06:39:51.430Z,2.80
2017-12-12T06:42:17.797Z,2.70
2017-12-12T06:44:44.179Z,2.70
2017-12-12T06:47:10.496Z,3.00
2017-12-12T06:49:36.864Z,2.70
2017-12-12T06:52:03.926Z,2.60
2017-12-12T06:54:30.977Z,2.60
2017-12-12T06:56:57.368Z,2.60
2017-12-12T06:59:23.709Z,2.70
2017-12-12T07:01:50.033Z,2.70
2017-12-12T07:04:17.097Z,2.60
2017-12-12T07:06:43.655Z,2.60
2017-12-12T07:09:10.021Z,2.70
2017-12-12T07:11:36.402Z,2.70
2017-12-12T07:16:34.024Z,2.80
2017-12-12T07:19:00.209Z,2.70
2017-12-12T07:21:26.596Z,2.80
2017-12-12T07:23:53.085Z,2.80
2017-12-12T07:26:20.294Z,2.70
2017-12-12T07:28:46.560Z,2.80
2017-12-12T07:31:12.884Z,2.90
2017-12-12T07:33:39.226Z,2.80
2017-12-12T07:36:06.265Z,2.80
2017-12-12T07:38:33.317Z,2.90
2017-12-12T07:41:00.395Z,2.80
2017-12-12T07:43:27.245Z,2.80
2017-12-12T07:45:53.348Z,2.80
2017-12-12T07:48:19.456Z,2.90
2017-12-12T07:50:47.711Z,2.90
2017-12-12T07:53:13.883Z,2.90
2017-12-12T07:55:41.222Z,3.00
2017-12-12T07:58:07.642Z,3.00
2017-12-12T08:00:33.982Z,3.00
2017-12-12T08:03:00.297Z,3.10
2017-12-12T08:05:26.632Z,3.00
2017-12-12T08:07:53.007Z,3.00
2017-12-12T08:10:19.462Z,3.10
2017-12-12T08:12:46.594Z,3.10
2017-12-12T08:15:13.704Z,3.00
2017-12-12T08:17:40.123Z,3.00
2017-12-12T08:20:06.509Z,3.00
2017-12-12T08:22:32.828Z,3.00
2017-12-12T08:24:59.132Z,3.10
2017-12-12T08:27:26.182Z,3.00
2017-12-12T08:29:52.494Z,3.00
2017-12-12T08:32:20.274Z,3.10
2017-12-12T08:34:46.603Z,3.10
2017-12-12T08:37:12.928Z,3.10
2017-12-12T08:39:39.263Z,3.20
2017-12-12T08:42:05.567Z,3.20
2017-12-12T08:44:31.930Z,3.10
2017-12-12T08:46:58.276Z,3.20
2017-12-12T08:49:27.742Z,3.20
2017-12-12T08:51:54.709Z,3.10
2017-12-12T08:54:20.832Z,3.10
2017-12-12T08:56:46.927Z,3.00
2017-12-12T08:59:13.289Z,3.10
2017-12-12T09:01:39.636Z,3.30
2017-12-12T09:04:05.951Z,3.30
2017-12-12T09:06:32.995Z,3.30
2017-12-12T09:09:02.539Z,3.30
2017-12-12T09:11:28.922Z,3.20
2017-12-12T09:13:55.222Z,3.20
2017-12-12T09:16:21.504Z,3.20
2017-12-12T09:18:47.811Z,3.30
2017-12-12T09:21:14.877Z,3.40
2017-12-12T09:23:41.186Z,3.30
2017-12-12T09:26:07.575Z,3.50
2017-12-12T09:28:40.096Z,3.40
2017-12-12T09:31:06.197Z,3.50
2017-12-12T09:33:32.302Z,3.30
2017-12-12T09:35:59.145Z,3.40
2017-12-12T09:38:25.295Z,3.40
2017-12-12T09:40:51.471Z,3.40
2017-12-12T09:43:18.325Z,3.40
2017-12-12T09:45:44.429Z,3.40
2017-12-12T09:48:12.765Z,3.40
2017-12-12T09:50:39.087Z,3.50
2017-12-12T09:53:05.481Z,3.60
2017-12-12T09:55:31.792Z,3.60
2017-12-12T09:57:58.860Z,3.50
2017-12-12T10:00:25.181Z,3.50
2017-12-12T10:05:25.459Z,3.50
2017-12-12T10:07:52.325Z,3.60
2017-12-12T10:10:18.432Z,3.60
2017-12-12T10:12:44.521Z,3.60
2017-12-12T10:15:10.628Z,3.50
2017-12-12T10:20:09.664Z,3.50
2017-12-12T10:22:35.801Z,3.50
2017-12-12T10:25:01.907Z,3.40
2017-12-12T10:27:28.788Z,3.50
2017-12-12T10:29:54.928Z,3.50
2017-12-12T10:32:21.019Z,3.60
2017-12-12T10:34:47.123Z,3.60
2017-12-12T10:37:16.161Z,3.50
2017-12-12T10:39:42.368Z,3.40
2017-12-12T10:42:08.607Z,3.40
2017-12-12T10:44:35.475Z,3.50
2017-12-12T10:47:01.571Z,3.50
2017-12-12T10:49:27.708Z,3.50
2017-12-12T10:51:54.099Z,3.40
2017-12-12T10:54:25.192Z,3.30
2017-12-12T10:56:51.474Z,3.30
2017-12-12T10:59:17.680Z,3.40
2017-12-12T11:01:43.810Z,3.40
2017-12-12T11:04:10.948Z,3.50
2017-12-12T11:06:37.270Z,3.00
2017-12-12T11:09:04.364Z,3.30
2017-12-12T11:11:30.543Z,3.30
2017-12-12T11:14:03.409Z,3.20
2017-12-12T11:16:29.593Z,3.40
2017-12-12T11:18:55.720Z,3.20
2017-12-12T11:21:22.594Z,3.50
2017-12-12T11:23:48.819Z,3.60
2017-12-12T11:26:14.979Z,3.80
2017-12-12T11:28:45.511Z,3.50
2017-12-12T11:31:11.698Z,3.60
2017-12-12T11:33:37.819Z,3.60
2017-12-12T11:36:03.959Z,3.70
2017-12-12T11:38:30.093Z,3.80
2017-12-12T11:40:56.196Z,3.70
2017-12-12T11:43:22.305Z,3.70
2017-12-12T11:45:48.408Z,3.70
2017-12-12T11:48:20.833Z,3.70
2017-12-12T11:50:47.021Z,3.70
2017-12-12T11:53:13.140Z,3.80
2017-12-12T11:55:39.455Z,3.80
2017-12-12T11:58:05.580Z,3.80
2017-12-12T12:00:32.441Z,3.60
2017-12-12T12:02:58.561Z,3.40
2017-12-12T12:05:29.984Z,3.60
2017-12-12T12:07:56.108Z,3.60
2017-12-12T12:10:22.333Z,3.60
2017-12-12T12:12:49.205Z,3.70
2017-12-12T12:15:15.303Z,3.70
2017-12-12T12:17:41.423Z,3.70
2017-12-12T12:20:08.290Z,3.80
2017-12-12T12:22:34.431Z,3.80
2017-12-12T12:25:04.027Z,3.70
2017-12-12T12:27:30.144Z,3.70
2017-12-12T12:29:57.250Z,3.70
2017-12-12T12:32:23.382Z,3.70
2017-12-12T12:34:49.532Z,3.70
2017-12-12T12:37:15.647Z,3.70
2017-12-12T12:39:41.903Z,3.70
2017-12-12T12:42:14.480Z,3.80
2017-12-12T12:44:40.625Z,3.70
2017-12-12T12:47:06.743Z,3.80
2017-12-12T12:49:33.616Z,3.70
2017-12-12T12:52:00.469Z,3.70
2017-12-12T12:54:26.830Z,3.70
2017-12-12T12:56:52.961Z,3.80
2017-12-12T12:59:19.242Z,3.70
2017-12-12T13:01:50.498Z,3.80
2017-12-12T13:04:16.928Z,3.80
2017-12-12T13:06:43.078Z,3.80
2017-12-12T13:09:10.009Z,3.80
2017-12-12T13:11:36.349Z,3.80
2017-12-12T13:14:02.465Z,3.60
2017-12-12T13:16:33.839Z,3.80
2017-12-12T13:19:00.707Z,3.80
2017-12-12T13:21:26.843Z,3.80
2017-12-12T13:23:52.958Z,3.70
2017-12-12T13:26:19.191Z,3.80
2017-12-12T13:28:46.156Z,3.70
2017-12-12T13:31:12.364Z,3.80
2017-12-12T13:33:39.581Z,3.60
2017-12-12T13:36:05.762Z,3.40
2017-12-12T13:38:31.967Z,3.40
2017-12-12T13:40:58.064Z,3.50
2017-12-12T13:43:24.168Z,3.60
2017-12-12T13:45:51.083Z,3.80
2017-12-12T13:48:17.925Z,3.80
2017-12-12T13:50:47.381Z,3.80
2017-12-12T13:53:13.475Z,4.20
2017-12-12T13:55:39.753Z,3.80
2017-12-12T13:58:06.083Z,3.80
2017-12-12T14:00:32.366Z,3.90
2017-12-12T14:02:58.663Z,3.80
2017-12-12T14:05:25.837Z,3.80
2017-12-12T14:07:52.191Z,3.80
2017-12-12T14:10:24.047Z,4.00
2017-12-12T14:12:54.259Z,4.00
2017-12-12T14:15:21.121Z,4.00
2017-12-12T14:17:47.534Z,4.00
2017-12-12T14:20:13.927Z,4.00
2017-12-12T14:22:40.071Z,4.00
2017-12-12T14:25:09.668Z,3.80
2017-12-12T14:27:35.762Z,3.90
2017-12-12T14:30:01.993Z,3.90
2017-12-12T14:32:28.145Z,4.00
2017-12-12T14:34:54.316Z,4.00
2017-12-12T14:37:21.210Z,3.60
2017-12-12T14:39:47.316Z,4.00
2017-12-12T14:42:16.560Z,3.90
2017-12-12T14:44:42.673Z,3.90
2017-12-12T14:47:08.808Z,3.80
2017-12-12T14:49:35.672Z,3.80
2017-12-12T14:52:01.772Z,3.80
2017-12-12T14:54:27.982Z,3.70
2017-12-12T14:56:54.080Z,3.60
2017-12-12T14:59:23.565Z,3.60
2017-12-12T15:01:49.703Z,3.60
2017-12-12T15:04:15.824Z,3.70
2017-12-12T15:06:41.916Z,3.60
2017-12-12T15:09:08.216Z,3.60
2017-12-12T15:11:34.316Z,3.70
2017-12-12T15:14:00.720Z,3.60
2017-12-12T15:16:28.952Z,3.70
2017-12-12T15:18:55.346Z,3.60
2017-12-12T15:21:21.658Z,4.00
2017-12-12T15:23:48.000Z,3.70
2017-12-12T15:26:15.071Z,3.90
2017-12-12T15:28:41.441Z,3.90
2017-12-12T15:31:08.730Z,3.80
2017-12-12T15:33:40.036Z,3.80
2017-12-12T15:36:07.120Z,3.80
2017-12-12T15:38:33.291Z,3.80
2017-12-12T15:40:59.396Z,3.90
2017-12-12T15:43:26.325Z,3.80
2017-12-12T15:45:53.209Z,3.70
2017-12-12T15:48:19.344Z,3.60
2017-12-12T15:50:51.720Z,3.70
2017-12-12T15:53:17.861Z,3.70
2017-12-12T15:55:44.013Z,3.70
2017-12-12T15:58:10.112Z,3.80
2017-12-12T16:00:36.224Z,3.80
2017-12-12T16:03:02.344Z,3.70
2017-12-12T16:05:28.445Z,3.70
2017-12-12T16:07:54.561Z,3.80
2017-12-12T16:10:24.483Z,3.80
2017-12-12T16:12:50.907Z,3.90
2017-12-12T16:15:18.144Z,3.70
2017-12-12T16:17:45.309Z,3.90
2017-12-12T16:20:11.498Z,3.80
2017-12-12T16:25:35.515Z,3.90
2017-12-12T16:28:01.872Z,4.10
2017-12-12T16:30:34.124Z,3.90
2017-12-12T16:33:00.485Z,3.90
2017-12-12T16:35:26.835Z,3.90
2017-12-12T16:37:53.186Z,4.00
2017-12-12T16:40:19.540Z,4.00
2017-12-12T16:42:46.655Z,4.10
2017-12-12T16:45:13.738Z,4.10
2017-12-12T16:47:46.114Z,4.10
2017-12-12T16:50:12.256Z,4.00
2017-12-12T16:52:39.311Z,4.00
2017-12-12T16:55:05.779Z,3.90
2017-12-12T16:57:32.177Z,4.00
2017-12-12T16:59:59.609Z,3.90
2017-12-12T17:02:26.183Z,3.90
2017-12-12T17:04:58.164Z,4.00
2017-12-12T17:07:24.754Z,4.00
2017-12-12T17:09:51.045Z,4.00
2017-12-12T17:12:18.228Z,3.80
2017-12-12T17:14:44.480Z,3.50
2017-12-12T17:17:10.843Z,3.80
2017-12-12T17:19:37.812Z,3.80
2017-12-12T17:22:07.860Z,3.80
2017-12-12T17:24:34.068Z,3.90
2017-12-12T17:27:00.217Z,3.70
2017-12-12T17:29:26.560Z,3.90
2017-12-12T17:31:53.644Z,3.80
2017-12-12T17:34:20.072Z,3.80
2017-12-12T17:39:19.616Z,3.80
2017-12-12T17:41:45.790Z,3.70
2017-12-12T17:44:11.905Z,3.80
2017-12-12T17:46:38.212Z,3.90
2017-12-12T17:49:05.345Z,3.70
2017-12-12T17:51:31.484Z,3.70
2017-12-12T17:53:57.633Z,3.80
2017-12-12T17:56:24.119Z,3.80
2017-12-12T17:58:50.424Z,3.50
2017-12-12T18:01:16.823Z,4.00
2017-12-12T18:03:42.937Z,3.90
2017-12-12T18:06:09.589Z,3.90
2017-12-12T18:08:35.734Z,3.90
2017-12-12T18:11:01.868Z,3.90
2017-12-12T18:13:28.712Z,3.70
2017-12-12T18:15:55.237Z,3.70
2017-12-12T18:18:22.177Z,3.90
2017-12-12T18:20:48.396Z,3.80
2017-12-12T18:23:14.639Z,3.90
2017-12-12T18:25:40.749Z,4.00
2017-12-12T18:28:06.938Z,3.90
2017-12-12T18:30:33.287Z,4.00
2017-12-12T18:32:59.598Z,4.00
2017-12-12T18:35:25.958Z,3.90
2017-12-12T18:37:52.262Z,3.90
2017-12-12T18:40:18.845Z,4.00
2017-12-12T18:42:45.247Z,4.00
2017-12-12T18:45:11.600Z,3.90
2017-12-12T18:47:37.936Z,3.70
2017-12-12T18:50:04.264Z,3.80
2017-12-12T18:52:30.579Z,3.80
2017-12-12T18:54:57.117Z,3.80
2017-12-12T18:57:23.423Z,3.70
2017-12-12T18:59:49.664Z,3.90
2017-12-12T19:02:15.997Z,3.90
2017-12-12T19:04:44.763Z,3.80
2017-12-12T19:07:11.660Z,3.80
2017-12-12T19:09:37.771Z,3.70
2017-12-12T19:12:03.899Z,3.80
2017-12-12T19:14:30.014Z,3.80
2017-12-12T19:16:56.768Z,3.80
2017-12-12T19:19:24.533Z,3.90
2017-12-12T19:21:50.670Z,3.80
2017-12-12T19:24:16.793Z,3.80
2017-12-12T19:26:42.969Z,3.90
2017-12-12T19:29:09.197Z,3.80
2017-12-12T19:31:35.379Z,4.00
2017-12-12T19:34:02.241Z,3.80
2017-12-12T19:36:29.106Z,3.70
2017-12-12T19:38:55.264Z,3.70
2017-12-12T19:41:26.233Z,3.90
2017-12-12T19:43:52.350Z,3.90
2017-12-12T19:46:18.468Z,3.90
2017-12-12T19:48:44.716Z,4.00
2017-12-12T19:51:10.909Z,4.00
2017-12-12T19:53:37.076Z,4.00
2017-12-12T19:56:03.191Z,4.00
2017-12-12T19:58:29.320Z,4.00
2017-12-12T20:00:57.389Z,4.10
2017-12-12T20:03:23.481Z,4.10
2017-12-12T20:05:49.631Z,4.20
2017-12-12T20:08:15.851Z,4.10
2017-12-12T20:10:42.013Z,3.90
2017-12-12T20:13:08.172Z,4.10
2017-12-12T20:15:34.477Z,4.00
2017-12-12T20:18:00.590Z,4.20
2017-12-12T20:20:26.715Z,3.80
2017-12-12T20:22:53.026Z,3.90
2017-12-12T20:25:19.362Z,4.00
2017-12-12T20:27:45.706Z,3.60
2017-12-12T20:30:12.045Z,4.00
2017-12-12T20:32:38.153Z,4.00
2017-12-12T20:35:04.480Z,4.00
2017-12-12T20:37:30.818Z,3.90
2017-12-12T20:39:57.170Z,4.00
2017-12-12T20:42:23.483Z,3.90
2017-12-12T20:44:49.813Z,4.10
2017-12-12T20:47:16.860Z,4.00
2017-12-12T20:49:43.182Z,4.00
2017-12-12T20:52:10.328Z,4.10
2017-12-12T20:54:36.644Z,4.00
2017-12-12T20:57:03.008Z,3.80
2017-12-12T20:59:30.360Z,3.80
2017-12-12T21:01:56.665Z,3.80
2017-12-12T21:04:22.996Z,3.90
2017-12-12T21:06:49.345Z,4.00
2017-12-12T21:09:15.672Z,3.90
2017-12-12T21:11:42.044Z,3.90
2017-12-12T21:14:09.682Z,3.90
2017-12-12T21:16:36.045Z,3.90
2017-12-12T21:19:02.389Z,3.90
2017-12-12T21:21:28.685Z,3.80
2017-12-12T21:23:55.223Z,3.90
2017-12-12T21:26:21.567Z,3.90
2017-12-12T21:28:47.970Z,3.90
2017-12-12T21:31:14.298Z,3.90
2017-12-12T21:33:40.669Z,3.80
2017-12-12T21:36:07.017Z,3.80
2017-12-12T21:38:33.377Z,3.80
2017-12-12T21:40:59.763Z,3.70
2017-12-12T21:43:26.092Z,3.60
2017-12-12T21:45:52.447Z,3.60
2017-12-12T21:48:18.822Z,3.60
2017-12-12T21:50:45.142Z,3.60
2017-12-12T21:53:11.485Z,3.60
2017-12-12T21:55:37.838Z,3.60
2017-12-12T21:58:04.232Z,3.70
2017-12-12T22:00:30.580Z,3.70
2017-12-12T22:02:56.905Z,3.70
2017-12-12T22:05:23.241Z,3.80
2017-12-12T22:07:49.596Z,3.80
2017-12-12T22:10:16.538Z,3.90
2017-12-12T22:12:42.919Z,3.60
2017-12-12T22:15:09.260Z,4.30
2017-12-12T22:17:35.606Z,3.60
2017-12-12T22:20:02.741Z,3.60
2017-12-12T22:22:29.114Z,3.50
2017-12-12T22:24:55.545Z,3.60
2017-12-12T22:27:21.898Z,3.40
2017-12-12T22:29:48.232Z,3.50
2017-12-12T22:32:15.436Z,3.40
2017-12-12T22:34:41.753Z,3.40
2017-12-12T22:37:08.099Z,3.30
2017-12-12T22:39:34.491Z,3.30
2017-12-12T22:42:00.855Z,3.30
2017-12-12T22:44:27.243Z,3.40
2017-12-12T22:46:54.334Z,3.30
2017-12-12T22:49:20.712Z,3.30
2017-12-12T22:51:47.063Z,3.30
2017-12-12T22:54:14.124Z,3.20
2017-12-12T22:56:40.531Z,3.20
2017-12-12T22:59:06.865Z,3.20
2017-12-12T23:01:33.215Z,3.20
2017-12-12T23:03:59.567Z,3.30
2017-12-12T23:06:25.921Z,3.20
2017-12-12T23:08:52.241Z,3.20
2017-12-12T23:11:18.588Z,3.20
2017-12-12T23:13:45.687Z,3.20
2017-12-12T23:16:12.041Z,3.20
2017-12-12T23:18:38.391Z,3.30
2017-12-12T23:21:04.717Z,3.30
2017-12-12T23:23:31.032Z,3.50
2017-12-12T23:25:57.319Z,3.50
2017-12-12T23:28:23.624Z,3.50
2017-12-12T23:30:53.928Z,3.60
2017-12-12T23:33:20.945Z,3.50
2017-12-12T23:35:47.266Z,3.50
2017-12-12T23:38:13.595Z,3.60
2017-12-12T23:40:39.943Z,3.90
2017-12-12T23:43:06.254Z,3.70
2017-12-12T23:45:32.536Z,3.70
2017-12-12T23:47:58.846Z,3.60
2017-12-12T23:50:25.993Z,3.80
2017-12-12T23:52:58.303Z,3.70
2017-12-12T23:55:24.461Z,3.90
2017-12-12T23:57:50.582Z,3.70
